sensor_id;sensor_type;location;lat;lon;timestamp;pressure;altitude;pressure_sealevel;temperature;humidity
22647;BME280;11490;42.726;23.268;2023-04-29T00:00:17;95295.66;;;7.14;78.44
22647;BME280;11490;42.726;23.268;2023-04-29T00:02:42;95289.13;;;6.85;82.15
22647;BME280;11490;42.726;23.268;2023-04-29T00:05:08;95292.13;;;6.95;82.79
22647;BME280;11490;42.726;23.268;2023-04-29T00:07:34;95297.19;;;7.34;80.04
22647;BME280;11490;42.726;23.268;2023-04-29T00:10:00;95303.88;;;7.37;79.42
22647;BME280;11490;42.726;23.268;2023-04-29T00:12:26;95294.19;;;7.24;81.55
22647;BME280;11490;42.726;23.268;2023-04-29T00:14:52;95284.38;;;7.25;79.40
22647;BME280;11490;42.726;23.268;2023-04-29T00:17:17;95296.53;;;6.70;80.83
22647;BME280;11490;42.726;23.268;2023-04-29T00:19:43;95290.28;;;6.95;82.37
22647;BME280;11490;42.726;23.268;2023-04-29T00:22:09;95287.94;;;6.81;80.75
22647;BME280;11490;42.726;23.268;2023-04-29T00:24:34;95295.69;;;6.76;82.54
22647;BME280;11490;42.726;23.268;2023-04-29T00:27:00;95301.59;;;6.78;81.42
22647;BME280;11490;42.726;23.268;2023-04-29T00:29:26;95294.09;;;7.06;80.38
22647;BME280;11490;42.726;23.268;2023-04-29T00:31:52;95296.94;;;7.11;79.30
22647;BME280;11490;42.726;23.268;2023-04-29T00:34:17;95293.00;;;6.89;81.39
22647;BME280;11490;42.726;23.268;2023-04-29T00:36:43;95285.13;;;6.69;82.83
22647;BME280;11490;42.726;23.268;2023-04-29T00:39:08;95291.63;;;7.11;80.41
22647;BME280;11490;42.726;23.268;2023-04-29T00:41:34;95274.69;;;7.12;80.30
22647;BME280;11490;42.726;23.268;2023-04-29T00:44:00;95288.72;;;6.88;80.94
22647;BME280;11490;42.726;23.268;2023-04-29T00:46:25;95289.03;;;6.98;81.17
22647;BME280;11490;42.726;23.268;2023-04-29T00:48:51;95290.84;;;7.04;79.95
22647;BME280;11490;42.726;23.268;2023-04-29T00:51:17;95279.19;;;7.05;79.54
22647;BME280;11490;42.726;23.268;2023-04-29T00:53:42;95273.44;;;6.83;80.01
22647;BME280;11490;42.726;23.268;2023-04-29T00:56:08;95287.34;;;7.10;79.57
22647;BME280;11490;42.726;23.268;2023-04-29T00:58:35;95277.34;;;6.81;82.47
22647;BME280;11490;42.726;23.268;2023-04-29T01:01:01;95282.34;;;6.57;82.78
22647;BME280;11490;42.726;23.268;2023-04-29T01:03:31;95255.38;;;6.67;82.61
22647;BME280;11490;42.726;23.268;2023-04-29T01:11:10;95269.53;;;6.86;82.57
22647;BME280;11490;42.726;23.268;2023-04-29T01:13:47;95266.72;;;6.81;80.84
22647;BME280;11490;42.726;23.268;2023-04-29T01:19:08;95244.09;;;6.40;81.79
22647;BME280;11490;42.726;23.268;2023-04-29T01:21:47;95264.28;;;6.79;81.46
22647;BME280;11490;42.726;23.268;2023-04-29T01:24:14;95256.38;;;6.73;80.74
22647;BME280;11490;42.726;23.268;2023-04-29T01:26:48;95246.44;;;6.62;79.94
22647;BME280;11490;42.726;23.268;2023-04-29T01:32:12;95269.53;;;6.86;80.42
22647;BME280;11490;42.726;23.268;2023-04-29T01:34:49;95263.69;;;6.33;83.09
22647;BME280;11490;42.726;23.268;2023-04-29T01:40:21;95247.03;;;6.19;81.64
22647;BME280;11490;42.726;23.268;2023-04-29T01:43:01;95249.84;;;6.31;81.79
22647;BME280;11490;42.726;23.268;2023-04-29T01:45:29;95240.59;;;6.46;81.38
22647;BME280;11490;42.726;23.268;2023-04-29T01:47:56;95243.84;;;6.04;85.41
22647;BME280;11490;42.726;23.268;2023-04-29T01:50:23;95249.91;;;6.11;83.69
22647;BME280;11490;42.726;23.268;2023-04-29T01:52:48;95256.31;;;6.41;82.57
22647;BME280;11490;42.726;23.268;2023-04-29T01:55:14;95255.22;;;6.11;83.94
22647;BME280;11490;42.726;23.268;2023-04-29T01:57:39;95254.25;;;6.43;81.99
22647;BME280;11490;42.726;23.268;2023-04-29T02:00:05;95259.63;;;6.30;81.83
22647;BME280;11490;42.726;23.268;2023-04-29T02:02:31;95264.84;;;6.43;80.63
22647;BME280;11490;42.726;23.268;2023-04-29T02:04:56;95259.25;;;6.20;81.56
22647;BME280;11490;42.726;23.268;2023-04-29T02:07:22;95266.16;;;6.21;81.98
22647;BME280;11490;42.726;23.268;2023-04-29T02:09:47;95239.16;;;5.99;82.12
22647;BME280;11490;42.726;23.268;2023-04-29T02:12:13;95263.09;;;6.24;81.33
22647;BME280;11490;42.726;23.268;2023-04-29T02:14:38;95263.91;;;6.31;81.63
22647;BME280;11490;42.726;23.268;2023-04-29T02:17:03;95247.03;;;6.19;81.22
22647;BME280;11490;42.726;23.268;2023-04-29T02:19:29;95262.88;;;6.32;81.96
22647;BME280;11490;42.726;23.268;2023-04-29T02:21:54;95252.81;;;5.90;83.35
22647;BME280;11490;42.726;23.268;2023-04-29T02:24:20;95267.88;;;5.96;82.87
22647;BME280;11490;42.726;23.268;2023-04-29T02:26:45;95250.34;;;6.01;82.70
22647;BME280;11490;42.726;23.268;2023-04-29T02:29:10;95243.84;;;6.04;82.34
22647;BME280;11490;42.726;23.268;2023-04-29T02:31:36;95262.94;;;6.06;82.27
22647;BME280;11490;42.726;23.268;2023-04-29T02:34:02;95252.78;;;6.03;82.71
22647;BME280;11490;42.726;23.268;2023-04-29T02:36:28;95257.69;;;5.93;81.99
22647;BME280;11490;42.726;23.268;2023-04-29T02:38:53;95254.03;;;5.94;81.54
22647;BME280;11490;42.726;23.268;2023-04-29T02:41:20;95249.16;;;5.77;83.18
22647;BME280;11490;42.726;23.268;2023-04-29T02:43:46;95256.47;;;5.75;82.57
22647;BME280;11490;42.726;23.268;2023-04-29T02:46:13;95239.03;;;5.35;85.65
22647;BME280;11490;42.726;23.268;2023-04-29T02:48:38;95250.78;;;5.65;82.96
22647;BME280;11490;42.726;23.268;2023-04-29T02:51:04;95261.41;;;5.26;86.53
22647;BME280;11490;42.726;23.268;2023-04-29T02:53:29;95258.13;;;4.97;87.38
22647;BME280;11490;42.726;23.268;2023-04-29T02:55:55;95265.88;;;5.06;86.07
22647;BME280;11490;42.726;23.268;2023-04-29T02:58:21;95272.38;;;5.23;85.50
22647;BME280;11490;42.726;23.268;2023-04-29T03:00:46;95271.94;;;4.86;86.33
22647;BME280;11490;42.726;23.268;2023-04-29T03:03:12;95272.59;;;5.08;88.17
22647;BME280;11490;42.726;23.268;2023-04-29T03:05:37;95262.59;;;4.90;86.74
22647;BME280;11490;42.726;23.268;2023-04-29T03:08:03;95275.19;;;4.88;86.63
22647;BME280;11490;42.726;23.268;2023-04-29T03:10:28;95258.47;;;4.55;89.30
22647;BME280;11490;42.726;23.268;2023-04-29T03:12:54;95258.09;;;4.71;89.57
22647;BME280;11490;42.726;23.268;2023-04-29T03:15:19;95273.59;;;5.14;87.40
22647;BME280;11490;42.726;23.268;2023-04-29T03:17:45;95273.22;;;5.17;85.24
22647;BME280;11490;42.726;23.268;2023-04-29T03:20:11;95284.16;;;5.14;84.88
22647;BME280;11490;42.726;23.268;2023-04-29T03:22:36;95278.06;;;5.20;84.68
22647;BME280;11490;42.726;23.268;2023-04-29T03:25:02;95288.66;;;5.39;84.06
22647;BME280;11490;42.726;23.268;2023-04-29T03:27:27;95291.09;;;5.15;84.43
22647;BME280;11490;42.726;23.268;2023-04-29T03:29:53;95308.59;;;5.42;83.94
22647;BME280;11490;42.726;23.268;2023-04-29T03:32:18;95297.19;;;5.35;83.18
22647;BME280;11490;42.726;23.268;2023-04-29T03:34:43;95303.72;;;5.26;83.89
22647;BME280;11490;42.726;23.268;2023-04-29T03:37:09;95298.00;;;5.29;83.60
22647;BME280;11490;42.726;23.268;2023-04-29T03:39:34;95304.13;;;5.42;83.07
22647;BME280;11490;42.726;23.268;2023-04-29T03:42:00;95298.00;;;5.02;84.45
22647;BME280;11490;42.726;23.268;2023-04-29T03:44:25;95286.16;;;4.79;90.06
22647;BME280;11490;42.726;23.268;2023-04-29T03:46:51;95262.97;;;4.81;88.76
22647;BME280;11490;42.726;23.268;2023-04-29T03:49:16;95281.53;;;5.14;87.65
22647;BME280;11490;42.726;23.268;2023-04-29T03:51:42;95299.66;;;5.30;86.59
22647;BME280;11490;42.726;23.268;2023-04-29T03:54:10;95284.41;;;5.32;87.18
22647;BME280;11490;42.726;23.268;2023-04-29T03:56:35;95279.91;;;5.59;85.82
22647;BME280;11490;42.726;23.268;2023-04-29T03:59:01;95289.47;;;5.66;85.41
22647;BME280;11490;42.726;23.268;2023-04-29T04:01:26;95287.84;;;5.78;86.01
22647;BME280;11490;42.726;23.268;2023-04-29T04:03:52;95299.25;;;5.72;86.28
22647;BME280;11490;42.726;23.268;2023-04-29T04:06:17;95309.59;;;6.07;85.50
22647;BME280;11490;42.726;23.268;2023-04-29T04:08:42;95297.78;;;6.09;84.39
22647;BME280;11490;42.726;23.268;2023-04-29T04:11:08;95315.06;;;6.25;84.01
22647;BME280;11490;42.726;23.268;2023-04-29T04:13:34;95311.16;;;6.34;83.32
22647;BME280;11490;42.726;23.268;2023-04-29T04:16:00;95316.66;;;6.33;84.26
22647;BME280;11490;42.726;23.268;2023-04-29T04:18:25;95312.97;;;6.40;84.06
22647;BME280;11490;42.726;23.268;2023-04-29T04:20:50;95313.91;;;6.66;82.81
22647;BME280;11490;42.726;23.268;2023-04-29T04:23:16;95300.31;;;6.49;84.24
22647;BME280;11490;42.726;23.268;2023-04-29T04:25:46;95305.09;;;6.72;82.64
22647;BME280;11490;42.726;23.268;2023-04-29T04:28:11;95313.34;;;6.95;81.21
22647;BME280;11490;42.726;23.268;2023-04-29T04:30:37;95315.06;;;7.14;79.12
22647;BME280;11490;42.726;23.268;2023-04-29T04:33:02;95289.84;;;6.99;78.70
22647;BME280;11490;42.726;23.268;2023-04-29T04:35:28;95312.38;;;6.83;80.60
22647;BME280;11490;42.726;23.268;2023-04-29T04:37:54;95298.22;;;7.02;80.14
22647;BME280;11490;42.726;23.268;2023-04-29T04:40:19;95323.38;;;7.24;79.06
22647;BME280;11490;42.726;23.268;2023-04-29T04:42:45;95310.97;;;7.18;79.85
22647;BME280;11490;42.726;23.268;2023-04-29T04:45:10;95315.41;;;7.24;80.10
22647;BME280;11490;42.726;23.268;2023-04-29T04:47:36;95312.50;;;7.32;79.77
22647;BME280;11490;42.726;23.268;2023-04-29T04:50:01;95312.66;;;7.38;80.00
22647;BME280;11490;42.726;23.268;2023-04-29T04:52:28;95260.13;;;7.21;78.74
22647;BME280;11490;42.726;23.268;2023-04-29T04:54:53;95298.84;;;7.54;78.16
22647;BME280;11490;42.726;23.268;2023-04-29T04:57:19;95279.03;;;7.31;77.04
22647;BME280;11490;42.726;23.268;2023-04-29T04:59:44;95307.56;;;7.36;78.59
22647;BME280;11490;42.726;23.268;2023-04-29T05:02:10;95298.97;;;7.41;78.67
22647;BME280;11490;42.726;23.268;2023-04-29T05:04:35;95299.34;;;7.44;78.42
22647;BME280;11490;42.726;23.268;2023-04-29T05:07:01;95300.97;;;7.70;77.70
22647;BME280;11490;42.726;23.268;2023-04-29T05:09:26;95289.91;;;7.23;78.43
22647;BME280;11490;42.726;23.268;2023-04-29T05:11:52;95274.75;;;7.55;78.15
22647;BME280;11490;42.726;23.268;2023-04-29T05:14:18;95275.66;;;7.92;76.44
22647;BME280;11490;42.726;23.268;2023-04-29T05:16:43;95274.75;;;7.80;77.27
22647;BME280;11490;42.726;23.268;2023-04-29T05:19:10;95273.16;;;7.97;76.39
22647;BME280;11490;42.726;23.268;2023-04-29T05:21:36;95279.66;;;8.01;76.82
22647;BME280;11490;42.726;23.268;2023-04-29T05:24:01;95280.84;;;8.24;75.29
22647;BME280;11490;42.726;23.268;2023-04-29T05:26:27;95271.03;;;8.24;74.79
22647;BME280;11490;42.726;23.268;2023-04-29T05:28:52;95280.69;;;8.19;76.86
22647;BME280;11490;42.726;23.268;2023-04-29T05:31:17;95273.38;;;8.14;77.34
22647;BME280;11490;42.726;23.268;2023-04-29T05:33:43;95278.09;;;8.30;76.81
22647;BME280;11490;42.726;23.268;2023-04-29T05:36:08;95270.50;;;8.16;77.29
22647;BME280;11490;42.726;23.268;2023-04-29T05:38:33;95272.31;;;8.40;76.35
22647;BME280;11490;42.726;23.268;2023-04-29T05:40:59;95273.47;;;8.44;76.80
22647;BME280;11490;42.726;23.268;2023-04-29T05:43:24;95277.75;;;8.63;76.35
22647;BME280;11490;42.726;23.268;2023-04-29T05:45:49;95288.94;;;8.83;76.10
22647;BME280;11490;42.726;23.268;2023-04-29T05:48:15;95286.56;;;8.94;75.27
22647;BME280;11490;42.726;23.268;2023-04-29T05:50:41;95279.84;;;8.91;74.22
22647;BME280;11490;42.726;23.268;2023-04-29T05:53:06;95294.19;;;9.20;74.21
22647;BME280;11490;42.726;23.268;2023-04-29T05:55:32;95289.09;;;9.30;74.59
22647;BME280;11490;42.726;23.268;2023-04-29T05:57:57;95288.50;;;9.70;72.28
22647;BME280;11490;42.726;23.268;2023-04-29T06:00:23;95285.28;;;9.91;71.98
22647;BME280;11490;42.726;23.268;2023-04-29T06:02:48;95289.69;;;10.44;70.74
22647;BME280;11490;42.726;23.268;2023-04-29T06:05:14;95289.50;;;10.73;70.60
22647;BME280;11490;42.726;23.268;2023-04-29T06:07:40;95294.16;;;11.06;69.34
22647;BME280;11490;42.726;23.268;2023-04-29T06:10:07;95284.69;;;11.44;67.14
22647;BME280;11490;42.726;23.268;2023-04-29T06:12:32;95272.31;;;11.09;65.46
22647;BME280;11490;42.726;23.268;2023-04-29T06:14:58;95277.78;;;11.76;66.52
22647;BME280;11490;42.726;23.268;2023-04-29T06:17:23;95287.69;;;12.31;63.58
22647;BME280;11490;42.726;23.268;2023-04-29T06:19:48;95275.47;;;12.18;62.36
22647;BME280;11490;42.726;23.268;2023-04-29T06:22:14;95291.97;;;12.32;62.13
22647;BME280;11490;42.726;23.268;2023-04-29T06:24:40;95288.72;;;11.46;63.74
22647;BME280;11490;42.726;23.268;2023-04-29T06:27:05;95280.63;;;12.25;62.92
22647;BME280;11490;42.726;23.268;2023-04-29T06:29:31;95285.66;;;12.38;61.72
22647;BME280;11490;42.726;23.268;2023-04-29T06:31:56;95288.53;;;12.75;62.19
22647;BME280;11490;42.726;23.268;2023-04-29T06:34:21;95282.34;;;12.96;61.36
22647;BME280;11490;42.726;23.268;2023-04-29T06:36:47;95274.34;;;12.75;63.59
22647;BME280;11490;42.726;23.268;2023-04-29T06:39:12;95282.38;;;13.45;61.18
22647;BME280;11490;42.726;23.268;2023-04-29T06:41:37;95271.47;;;13.57;58.88
22647;BME280;11490;42.726;23.268;2023-04-29T06:44:04;95266.75;;;11.89;62.48
22647;BME280;11490;42.726;23.268;2023-04-29T06:46:29;95267.06;;;11.93;62.52
22647;BME280;11490;42.726;23.268;2023-04-29T06:48:55;95267.84;;;12.70;62.82
22647;BME280;11490;42.726;23.268;2023-04-29T06:51:20;95283.03;;;13.30;60.42
22647;BME280;11490;42.726;23.268;2023-04-29T06:53:45;95278.22;;;13.32;60.32
22647;BME280;11490;42.726;23.268;2023-04-29T06:56:11;95271.91;;;13.43;59.57
22647;BME280;11490;42.726;23.268;2023-04-29T06:58:36;95258.47;;;13.38;58.76
22647;BME280;11490;42.726;23.268;2023-04-29T07:01:02;95271.09;;;13.43;58.69
22647;BME280;11490;42.726;23.268;2023-04-29T07:03:28;95256.06;;;12.93;59.21
22647;BME280;11490;42.726;23.268;2023-04-29T07:05:53;95265.59;;;12.62;59.68
22647;BME280;11490;42.726;23.268;2023-04-29T07:08:20;95250.53;;;12.78;62.01
22647;BME280;11490;42.726;23.268;2023-04-29T07:10:56;95253.41;;;13.15;58.36
22647;BME280;11490;42.726;23.268;2023-04-29T07:13:24;95251.84;;;12.97;59.04
22647;BME280;11490;42.726;23.268;2023-04-29T07:15:49;95237.31;;;12.45;59.25
22647;BME280;11490;42.726;23.268;2023-04-29T07:18:15;95244.28;;;12.46;58.80
22647;BME280;11490;42.726;23.268;2023-04-29T07:20:43;95248.97;;;13.04;59.82
22647;BME280;11490;42.726;23.268;2023-04-29T07:23:08;95249.88;;;13.36;60.37
22647;BME280;11490;42.726;23.268;2023-04-29T07:25:34;95257.22;;;13.24;58.10
22647;BME280;11490;42.726;23.268;2023-04-29T07:28:00;95250.34;;;13.60;59.05
22647;BME280;11490;42.726;23.268;2023-04-29T07:30:25;95260.28;;;13.65;56.09
22647;BME280;11490;42.726;23.268;2023-04-29T07:32:51;95256.91;;;14.11;59.11
22647;BME280;11490;42.726;23.268;2023-04-29T07:35:16;95235.13;;;14.40;58.08
22647;BME280;11490;42.726;23.268;2023-04-29T07:37:41;95256.41;;;12.97;58.23
22647;BME280;11490;42.726;23.268;2023-04-29T07:40:08;95245.47;;;13.84;59.06
22647;BME280;11490;42.726;23.268;2023-04-29T07:42:33;95245.94;;;13.76;55.67
22647;BME280;11490;42.726;23.268;2023-04-29T07:44:59;95226.03;;;14.56;55.51
22647;BME280;11490;42.726;23.268;2023-04-29T07:47:27;95255.75;;;14.91;52.10
22647;BME280;11490;42.726;23.268;2023-04-29T07:49:54;95249.88;;;15.05;52.58
22647;BME280;11490;42.726;23.268;2023-04-29T07:52:23;95247.50;;;14.46;53.33
22647;BME280;11490;42.726;23.268;2023-04-29T07:54:49;95225.13;;;14.35;54.05
22647;BME280;11490;42.726;23.268;2023-04-29T07:57:14;95219.84;;;15.33;53.22
22647;BME280;11490;42.726;23.268;2023-04-29T07:59:40;95209.13;;;15.58;53.81
22647;BME280;11490;42.726;23.268;2023-04-29T08:02:05;95206.69;;;16.07;51.15
22647;BME280;11490;42.726;23.268;2023-04-29T08:04:31;95229.19;;;16.47;49.50
22647;BME280;11490;42.726;23.268;2023-04-29T08:06:56;95218.22;;;16.23;47.38
22647;BME280;11490;42.726;23.268;2023-04-29T08:09:21;95215.75;;;16.37;46.63
22647;BME280;11490;42.726;23.268;2023-04-29T08:11:47;95204.00;;;16.07;46.53
22647;BME280;11490;42.726;23.268;2023-04-29T08:14:12;95204.19;;;16.41;47.66
22647;BME280;11490;42.726;23.268;2023-04-29T08:16:38;95213.44;;;16.89;48.01
22647;BME280;11490;42.726;23.268;2023-04-29T08:19:03;95200.47;;;17.02;46.80
22647;BME280;11490;42.726;23.268;2023-04-29T08:21:31;95168.34;;;16.46;45.87
22647;BME280;11490;42.726;23.268;2023-04-29T08:24:07;95189.03;;;16.66;46.77
22647;BME280;11490;42.726;23.268;2023-04-29T08:26:49;95183.50;;;16.96;49.67
22647;BME280;11490;42.726;23.268;2023-04-29T08:29:17;95206.72;;;17.75;45.48
22647;BME280;11490;42.726;23.268;2023-04-29T08:31:43;95216.91;;;18.12;44.73
22647;BME280;11490;42.726;23.268;2023-04-29T08:34:13;95188.63;;;17.81;45.62
22647;BME280;11490;42.726;23.268;2023-04-29T08:36:44;95192.44;;;18.03;43.95
22647;BME280;11490;42.726;23.268;2023-04-29T08:39:12;95185.94;;;17.76;43.34
22647;BME280;11490;42.726;23.268;2023-04-29T08:41:45;95222.28;;;17.00;43.88
22647;BME280;11490;42.726;23.268;2023-04-29T08:44:16;95210.03;;;17.23;46.72
22647;BME280;11490;42.726;23.268;2023-04-29T08:46:43;95185.94;;;17.42;45.99
22647;BME280;11490;42.726;23.268;2023-04-29T08:49:09;95206.38;;;17.43;42.77
22647;BME280;11490;42.726;23.268;2023-04-29T08:51:37;95205.50;;;17.13;46.42
22647;BME280;11490;42.726;23.268;2023-04-29T08:54:03;95203.13;;;18.14;45.71
22647;BME280;11490;42.726;23.268;2023-04-29T08:56:32;95186.50;;;18.30;44.10
22647;BME280;11490;42.726;23.268;2023-04-29T08:59:00;95181.44;;;18.48;43.48
22647;BME280;11490;42.726;23.268;2023-04-29T09:01:32;95184.69;;;18.73;45.27
22647;BME280;11490;42.726;23.268;2023-04-29T09:06:58;95183.38;;;18.90;40.89
22647;BME280;11490;42.726;23.268;2023-04-29T09:09:24;95212.13;;;18.33;42.01
22647;BME280;11490;42.726;23.268;2023-04-29T09:11:50;95183.94;;;18.15;43.82
22647;BME280;11490;42.726;23.268;2023-04-29T09:14:17;95187.84;;;18.28;45.17
22647;BME280;11490;42.726;23.268;2023-04-29T09:16:46;95196.44;;;18.35;44.74
22647;BME280;11490;42.726;23.268;2023-04-29T09:19:28;95189.03;;;18.45;43.17
22647;BME280;11490;42.726;23.268;2023-04-29T09:21:54;95162.81;;;18.46;42.38
22647;BME280;11490;42.726;23.268;2023-04-29T09:24:26;95183.56;;;18.74;41.93
22647;BME280;11490;42.726;23.268;2023-04-29T09:26:53;95182.28;;;18.91;45.09
22647;BME280;11490;42.726;23.268;2023-04-29T09:29:19;95155.34;;;19.23;45.44
22647;BME280;11490;42.726;23.268;2023-04-29T09:31:45;95164.94;;;19.53;43.91
22647;BME280;11490;42.726;23.268;2023-04-29T09:34:12;95181.22;;;19.29;39.31
22647;BME280;11490;42.726;23.268;2023-04-29T09:39:06;95174.84;;;19.01;42.57
22647;BME280;11490;42.726;23.268;2023-04-29T09:41:37;95164.66;;;19.87;42.65
22647;BME280;11490;42.726;23.268;2023-04-29T09:44:04;95174.44;;;19.83;39.56
22647;BME280;11490;42.726;23.268;2023-04-29T09:46:31;95163.44;;;19.93;37.46
22647;BME280;11490;42.726;23.268;2023-04-29T09:48:57;95150.84;;;19.70;41.64
22647;BME280;11490;42.726;23.268;2023-04-29T09:51:23;95151.94;;;19.69;41.89
22647;BME280;11490;42.726;23.268;2023-04-29T09:53:49;95142.53;;;19.66;41.67
22647;BME280;11490;42.726;23.268;2023-04-29T09:56:14;95151.78;;;19.28;41.90
22647;BME280;11490;42.726;23.268;2023-04-29T09:58:39;95144.38;;;19.33;41.65
22647;BME280;11490;42.726;23.268;2023-04-29T10:01:05;95128.66;;;18.98;42.55
22647;BME280;11490;42.726;23.268;2023-04-29T10:03:33;95147.06;;;18.77;41.09
22647;BME280;11490;42.726;23.268;2023-04-29T10:05:59;95128.94;;;18.59;42.43
22647;BME280;11490;42.726;23.268;2023-04-29T10:08:26;95132.59;;;18.68;40.25
22647;BME280;11490;42.726;23.268;2023-04-29T10:10:54;95130.84;;;18.58;40.96
22647;BME280;11490;42.726;23.268;2023-04-29T10:13:25;95133.84;;;18.75;43.07
22647;BME280;11490;42.726;23.268;2023-04-29T10:18:34;95130.66;;;18.73;43.72
22647;BME280;11490;42.726;23.268;2023-04-29T10:21:02;95128.00;;;18.68;44.42
22647;BME280;11490;42.726;23.268;2023-04-29T10:23:31;95125.81;;;18.70;44.51
22647;BME280;11490;42.726;23.268;2023-04-29T10:25:58;95120.41;;;18.70;42.75
22647;BME280;11490;42.726;23.268;2023-04-29T10:28:25;95112.84;;;18.72;44.21
22647;BME280;11490;42.726;23.268;2023-04-29T10:30:53;95115.53;;;18.72;42.57
22647;BME280;11490;42.726;23.268;2023-04-29T10:33:19;95122.16;;;18.61;42.27
22647;BME280;11490;42.726;23.268;2023-04-29T10:35:47;95117.44;;;18.48;39.08
22647;BME280;11490;42.726;23.268;2023-04-29T10:38:35;95122.75;;;18.58;42.53
22647;BME280;11490;42.726;23.268;2023-04-29T10:41:03;95109.84;;;18.50;42.97
22647;BME280;11490;42.726;23.268;2023-04-29T10:43:33;95118.00;;;18.45;40.60
22647;BME280;11490;42.726;23.268;2023-04-29T10:46:23;95112.59;;;18.21;42.45
22647;BME280;11490;42.726;23.268;2023-04-29T10:49:03;95115.44;;;18.35;42.74
22647;BME280;11490;42.726;23.268;2023-04-29T10:51:43;95105.91;;;18.42;44.18
22647;BME280;11490;42.726;23.268;2023-04-29T10:54:12;95092.50;;;18.32;41.90
22647;BME280;11490;42.726;23.268;2023-04-29T10:56:47;95107.19;;;18.45;41.86
22647;BME280;11490;42.726;23.268;2023-04-29T10:59:17;95092.16;;;18.39;40.08
22647;BME280;11490;42.726;23.268;2023-04-29T11:01:48;95092.97;;;18.39;39.35
22647;BME280;11490;42.726;23.268;2023-04-29T11:04:15;95106.38;;;18.44;39.37
22647;BME280;11490;42.726;23.268;2023-04-29T11:06:43;95114.31;;;18.36;36.34
22647;BME280;11490;42.726;23.268;2023-04-29T11:09:12;95105.78;;;18.29;38.85
22647;BME280;11490;42.726;23.268;2023-04-29T11:14:08;95106.75;;;17.90;34.30
22647;BME280;11490;42.726;23.268;2023-04-29T11:16:35;95087.03;;;17.61;36.18
22647;BME280;11490;42.726;23.268;2023-04-29T11:19:08;95088.72;;;17.57;34.61
22647;BME280;11490;42.726;23.268;2023-04-29T11:21:35;95087.88;;;17.61;37.26
22647;BME280;11490;42.726;23.268;2023-04-29T11:24:01;95083.75;;;17.69;37.94
22647;BME280;11490;42.726;23.268;2023-04-29T11:26:27;95095.09;;;17.66;35.86
22647;BME280;11490;42.726;23.268;2023-04-29T11:28:53;95083.81;;;17.59;38.91
22647;BME280;11490;42.726;23.268;2023-04-29T11:31:20;95079.91;;;17.46;37.97
22647;BME280;11490;42.726;23.268;2023-04-29T11:33:46;95096.34;;;17.50;36.65
22647;BME280;11490;42.726;23.268;2023-04-29T11:36:11;95089.53;;;17.57;36.54
22647;BME280;11490;42.726;23.268;2023-04-29T11:38:39;95080.25;;;17.40;37.76
22647;BME280;11490;42.726;23.268;2023-04-29T11:41:10;95090.34;;;17.53;38.61
22647;BME280;11490;42.726;23.268;2023-04-29T11:43:35;95088.34;;;17.35;37.15
22647;BME280;11490;42.726;23.268;2023-04-29T11:46:13;95090.56;;;17.33;34.59
22647;BME280;11490;42.726;23.268;2023-04-29T11:48:46;95088.31;;;17.11;35.79
22647;BME280;11490;42.726;23.268;2023-04-29T11:51:13;95094.47;;;17.11;38.41
22647;BME280;11490;42.726;23.268;2023-04-29T11:53:47;95089.66;;;17.08;35.65
22647;BME280;11490;42.726;23.268;2023-04-29T11:56:22;95081.03;;;17.06;41.62
22647;BME280;11490;42.726;23.268;2023-04-29T11:59:03;95082.09;;;17.10;39.13
22647;BME280;11490;42.726;23.268;2023-04-29T12:01:32;95078.81;;;17.13;41.58
22647;BME280;11490;42.726;23.268;2023-04-29T12:03:57;95069.59;;;17.19;39.90
22647;BME280;11490;42.726;23.268;2023-04-29T12:06:27;95077.41;;;17.21;42.44
22647;BME280;11490;42.726;23.268;2023-04-29T12:08:54;95077.69;;;17.19;38.19
22647;BME280;11490;42.726;23.268;2023-04-29T12:11:19;95080.59;;;17.28;38.81
22647;BME280;11490;42.726;23.268;2023-04-29T12:13:45;95067.44;;;17.21;41.78
22647;BME280;11490;42.726;23.268;2023-04-29T12:16:11;95060.28;;;17.41;40.28
22647;BME280;11490;42.726;23.268;2023-04-29T12:18:37;95060.56;;;17.39;39.00
22647;BME280;11490;42.726;23.268;2023-04-29T12:21:03;95054.31;;;17.44;39.71
22647;BME280;11490;42.726;23.268;2023-04-29T12:23:28;95064.59;;;17.42;37.30
22647;BME280;11490;42.726;23.268;2023-04-29T12:25:56;95064.06;;;17.40;38.40
22647;BME280;11490;42.726;23.268;2023-04-29T12:28:32;95065.22;;;17.28;39.16
22647;BME280;11490;42.726;23.268;2023-04-29T12:30:59;95030.25;;;17.23;39.81
22647;BME280;11490;42.726;23.268;2023-04-29T12:33:28;95047.97;;;17.29;40.35
22647;BME280;11490;42.726;23.268;2023-04-29T12:35:57;95038.38;;;17.18;39.18
22647;BME280;11490;42.726;23.268;2023-04-29T12:38:30;95044.78;;;17.22;40.21
22647;BME280;11490;42.726;23.268;2023-04-29T12:40:59;95041.16;;;17.08;40.47
22647;BME280;11490;42.726;23.268;2023-04-29T12:43:30;95043.94;;;17.27;41.62
22647;BME280;11490;42.726;23.268;2023-04-29T12:46:04;95044.66;;;17.38;41.38
22647;BME280;11490;42.726;23.268;2023-04-29T12:48:36;95024.03;;;17.23;39.13
22647;BME280;11490;42.726;23.268;2023-04-29T12:51:09;95042.41;;;17.50;41.93
22647;BME280;11490;42.726;23.268;2023-04-29T12:53:34;95029.16;;;17.24;38.98
22647;BME280;11490;42.726;23.268;2023-04-29T12:56:00;95042.09;;;17.51;38.73
22647;BME280;11490;42.726;23.268;2023-04-29T12:58:30;95041.34;;;17.46;39.48
22647;BME280;11490;42.726;23.268;2023-04-29T13:00:57;95027.41;;;17.39;39.59
22647;BME280;11490;42.726;23.268;2023-04-29T13:03:22;95039.72;;;17.50;41.29
22647;BME280;11490;42.726;23.268;2023-04-29T13:05:48;95027.25;;;17.54;40.86
22647;BME280;11490;42.726;23.268;2023-04-29T13:08:16;95027.66;;;17.71;44.61
22647;BME280;11490;42.726;23.268;2023-04-29T13:10:42;95029.00;;;17.92;43.32
22647;BME280;11490;42.726;23.268;2023-04-29T13:13:07;95007.03;;;17.80;44.03
22647;BME280;11490;42.726;23.268;2023-04-29T13:15:39;95010.75;;;17.84;40.66
22647;BME280;11490;42.726;23.268;2023-04-29T13:18:07;95028.66;;;17.75;44.36